Time;durP1;ratioP1;P1;durP2;ratioP2;P2;SDS_P1;SDS_P2;PMS_P1;PMS_P2;Temp;Humidity;BMP_temperature;BMP_pressure;BME280_temperature;BME280_humidity;BME280_pressure;Samples;Min_cycle;Max_cycle;Signal;HPM_P1;HPM_P2
2022/08/07 00:02:01;;;;;;;5.07;4.67;;;21.60;29.90;;;;;;10434090;28;20710;-76
2022/08/07 00:07:24;;;;;;;5.30;4.90;;;21.60;30.40;;;;;;10439910;28;21677;-76
2022/08/07 00:12:30;;;;;;;5.90;5.50;;;21.60;30.00;;;;;;10426552;28;20319;-77
2022/08/07 00:17:35;;;;;;;6.73;6.23;;;21.50;30.30;;;;;;10441420;28;20233;-77
2022/08/07 00:22:41;;;;;;;6.30;5.87;;;21.50;31.10;;;;;;10437777;28;20236;-76
2022/08/07 00:27:53;;;;;;;5.63;5.23;;;21.40;30.70;;;;;;10432715;28;20253;-76
2022/08/07 00:33:01;;;;;;;5.67;5.17;;;21.40;30.90;;;;;;10442684;28;20253;-76
2022/08/07 00:38:05;;;;;;;5.83;5.43;;;21.30;31.60;;;;;;10434776;28;20301;-75
2022/08/07 00:43:09;;;;;;;5.47;4.97;;;21.20;31.20;;;;;;10435445;28;20709;-76
2022/08/07 00:48:34;;;;;;;5.40;5.00;;;21.20;31.30;;;;;;10440896;28;20228;-77
2022/08/07 00:53:44;;;;;;;5.40;5.00;;;21.10;31.80;;;;;;10438275;28;20291;-76
2022/08/07 00:58:57;;;;;;;5.50;4.93;;;21.10;31.60;;;;;;10433671;28;20894;-76
2022/08/07 01:04:05;;;;;;;5.97;5.57;;;21.10;31.60;;;;;;10423491;28;20236;-76
2022/08/07 01:09:10;;;;;;;6.57;6.07;;;21.00;33.10;;;;;;10435903;28;20748;-77
2022/08/07 01:14:33;;;;;;;6.70;6.20;;;21.00;32.20;;;;;;10432260;28;20236;-77
2022/08/07 01:19:41;;;;;;;5.30;4.90;;;21.00;32.40;;;;;;10436169;28;20229;-76
2022/08/07 01:24:58;;;;;;;4.93;4.53;;;20.90;33.00;;;;;;10448301;28;20275;-77
2022/08/07 01:30:02;;;;;;;5.80;5.30;;;20.90;33.30;;;;;;10439520;28;20857;-76
2022/08/07 01:35:07;;;;;;;5.20;4.80;;;20.90;33.10;;;;;;10441235;28;20682;-77
2022/08/07 01:40:14;;;;;;;5.20;4.80;;;20.90;33.40;;;;;;10427197;28;20732;-77
2022/08/07 01:45:20;;;;;;;4.63;4.33;;;20.90;33.80;;;;;;10428717;28;20841;-77
2022/08/07 01:50:29;;;;;;;4.40;4.00;;;20.90;33.30;;;;;;10445318;28;20646;-76
2022/08/07 01:55:38;;;;;;;4.93;4.53;;;20.90;33.50;;;;;;10429302;28;20230;-77
2022/08/07 02:00:42;;;;;;;4.40;4.10;;;20.90;35.30;;;;;;10435563;28;20727;-77
2022/08/07 02:05:54;;;;;;;4.20;3.90;;;20.90;33.50;;;;;;10426962;28;20228;-77
2022/08/07 02:11:05;;;;;;;3.57;3.37;;;20.80;33.60;;;;;;10441882;28;20771;-77
2022/08/07 02:16:13;;;;;;;4.03;3.77;;;20.80;33.90;;;;;;10444352;28;20248;-77
2022/08/07 02:21:19;;;;;;;4.03;3.73;;;20.80;33.60;;;;;;10434732;28;20228;-77
2022/08/07 02:26:25;;;;;;;4.43;4.13;;;20.80;33.80;;;;;;10440839;28;20236;-76
2022/08/07 02:31:39;;;;;;;4.60;4.20;;;20.70;34.40;;;;;;10435106;28;20224;-77
2022/08/07 02:36:44;;;;;;;4.73;4.40;;;20.70;34.00;;;;;;10433885;28;20629;-77
2022/08/07 02:41:50;;;;;;;4.57;4.17;;;20.60;33.60;;;;;;10427896;28;20226;-77
2022/08/07 02:46:58;;;;;;;4.20;3.90;;;20.50;34.10;;;;;;10427079;28;20705;-77
2022/08/07 02:52:08;;;;;;;3.37;3.17;;;20.40;33.90;;;;;;10420489;28;20611;-77
2022/08/07 02:57:19;;;;;;;3.90;3.70;;;20.40;34.80;;;;;;10437544;28;20317;-77
2022/08/07 03:02:24;;;;;;;3.70;3.50;;;20.30;34.90;;;;;;10426418;28;20692;-77
2022/08/07 03:07:30;;;;;;;3.40;3.20;;;20.20;34.30;;;;;;10436012;28;20299;-77
2022/08/07 03:12:56;;;;;;;3.50;3.20;;;20.20;35.00;;;;;;10430983;28;20240;-78
2022/08/07 03:18:02;;;;;;;3.70;3.33;;;20.20;35.20;;;;;;10439531;28;20698;-77
2022/08/07 03:23:06;;;;;;;3.30;3.10;;;20.10;34.60;;;;;;10423503;28;20234;-76
2022/08/07 03:28:23;;;;;;;3.63;3.33;;;20.10;34.60;;;;;;10433489;28;20608;-77
2022/08/07 03:33:41;;;;;;;3.50;3.20;;;20.00;35.00;;;;;;10434525;28;20287;-77
2022/08/07 03:38:45;;;;;;;3.10;2.90;;;20.00;34.40;;;;;;10434287;28;20293;-77
2022/08/07 03:43:50;;;;;;;4.87;3.13;;;19.90;34.20;;;;;;10428605;28;20229;-77
2022/08/07 03:48:59;;;;;;;3.40;3.20;;;19.90;34.50;;;;;;10440823;28;20221;-77
2022/08/07 03:54:05;;;;;;;5.43;3.10;;;19.70;34.60;;;;;;10441153;28;20792;-77
2022/08/07 03:59:31;;;;;;;3.50;3.30;;;19.60;34.10;;;;;;10430515;28;20236;-77
2022/08/07 04:04:35;;;;;;;3.20;2.90;;;19.50;34.80;;;;;;10434349;28;20235;-77
2022/08/07 04:09:40;;;;;;;3.13;2.93;;;19.50;34.40;;;;;;10436810;28;20233;-77
2022/08/07 04:14:54;;;;;;;2.97;2.77;;;19.40;34.60;;;;;;10433490;28;20298;-77
2022/08/07 04:19:58;;;;;;;3.20;3.00;;;19.30;34.90;;;;;;10441972;28;20229;-77
2022/08/07 04:25:03;;;;;;;3.10;2.90;;;19.30;34.50;;;;;;10429475;28;20233;-77
2022/08/07 04:30:15;;;;;;;2.70;2.50;;;19.20;34.40;;;;;;10431052;28;20315;-77
2022/08/07 04:35:39;;;;;;;3.10;2.90;;;19.20;35.20;;;;;;10440730;28;20229;-77
2022/08/07 04:40:44;;;;;;;4.50;2.70;;;19.10;34.70;;;;;;10445798;28;20279;-78
2022/08/07 04:46:07;;;;;;;2.50;2.30;;;19.00;34.60;;;;;;10442193;28;20278;-77
2022/08/07 04:51:26;;;;;;;2.20;2.10;;;19.00;35.60;;;;;;10440417;28;20272;-78
2022/08/07 04:56:39;;;;;;;2.80;2.60;;;18.90;35.50;;;;;;10448211;28;20294;-77
2022/08/07 05:02:09;;;;;;;2.00;1.90;;;18.90;35.50;;;;;;10444708;28;20592;-77
2022/08/07 05:07:24;;;;;;;2.90;2.20;;;18.90;35.50;;;;;;10445271;28;20229;-78
2022/08/07 05:12:50;;;;;;;2.50;2.30;;;18.90;35.50;;;;;;10441994;28;20722;-78
2022/08/07 05:18:02;;;;;;;2.10;1.97;;;18.90;35.50;;;;;;10454345;28;20699;-78
2022/08/07 05:23:16;;;;;;;2.30;2.00;;;19.00;35.60;;;;;;10431583;28;20221;-78
2022/08/07 05:28:21;;;;;;;1.77;1.70;;;19.00;35.30;;;;;;10439044;28;20320;-77
2022/08/07 05:33:31;;;;;;;1.80;1.70;;;19.00;34.90;;;;;;10444034;28;20241;-77
2022/08/07 05:38:39;;;;;;;1.90;1.80;;;19.00;35.10;;;;;;10449745;28;20279;-76
2022/08/07 05:44:03;;;;;;;1.90;1.77;;;19.00;34.70;;;;;;10447208;28;20624;-77
2022/08/07 05:49:16;;;;;;;1.67;1.57;;;19.00;34.70;;;;;;10447018;28;20232;-77
2022/08/07 05:54:20;;;;;;;1.70;1.43;;;19.00;35.00;;;;;;10431842;28;20721;-77
2022/08/07 05:59:46;;;;;;;1.80;1.70;;;19.00;34.70;;;;;;10429596;28;20638;-77
2022/08/07 06:05:04;;;;;;;1.93;1.60;;;19.10;35.10;;;;;;10450160;28;20279;-77
2022/08/07 06:10:11;;;;;;;1.57;1.47;;;19.20;35.40;;;;;;10434008;28;20312;-77
2022/08/07 06:15:18;;;;;;;1.70;1.60;;;19.20;35.00;;;;;;10438407;28;20260;-77
2022/08/07 06:20:24;;;;;;;1.70;1.60;;;19.30;34.90;;;;;;10425349;28;20222;-77
2022/08/07 06:25:49;;;;;;;1.60;1.50;;;19.40;34.90;;;;;;10437432;28;20705;-77
2022/08/07 06:30:59;;;;;;;1.40;1.30;;;19.50;34.60;;;;;;10441991;28;20241;-76
2022/08/07 06:36:03;;;;;;;1.37;1.27;;;19.60;34.70;;;;;;10422556;28;20233;-77
2022/08/07 06:41:31;;;;;;;1.50;1.40;;;19.70;34.80;;;;;;10418307;28;20631;-77
2022/08/07 06:46:54;;;;;;;1.47;1.37;;;19.80;34.70;;;;;;10433372;28;20226;-77
2022/08/07 06:52:20;;;;;;;1.30;1.20;;;20.00;34.70;;;;;;10433980;28;20224;-78
2022/08/07 06:57:39;;;;;;;1.63;1.47;;;20.10;34.30;;;;;;10444872;28;20290;-77
2022/08/07 07:02:56;;;;;;;2.40;1.40;;;20.30;34.20;;;;;;10439383;28;20225;-77
2022/08/07 07:08:12;;;;;;;1.50;1.40;;;20.50;33.90;;;;;;10443332;28;20224;-77
2022/08/07 07:13:26;;;;;;;1.27;1.17;;;20.70;33.60;;;;;;10434780;28;20312;-77
2022/08/07 07:18:55;;;;;;;1.37;1.27;;;20.90;33.50;;;;;;10434570;28;20640;-77
2022/08/07 07:24:00;;;;;;;2.10;1.40;;;21.10;33.50;;;;;;10434267;28;20312;-76
2022/08/07 07:29:16;;;;;;;1.50;1.17;;;21.30;33.40;;;;;;10430717;28;20223;-77
2022/08/07 07:34:45;;;;;;;1.80;1.70;;;21.50;33.50;;;;;;10428006;28;20664;-77
2022/08/07 07:39:57;;;;;;;1.77;1.47;;;21.70;32.90;;;;;;10431025;28;20217;-77
2022/08/07 07:45:03;;;;;;;1.17;1.17;;;21.90;32.60;;;;;;10435895;28;20264;-77
2022/08/07 07:50:09;;;;;;;1.50;1.40;;;22.10;32.70;;;;;;10430519;28;20232;-77
2022/08/07 07:55:34;;;;;;;1.40;1.30;;;22.20;32.40;;;;;;10433902;28;20229;-77
2022/08/07 08:00:48;;;;;;;2.20;1.47;;;22.40;31.60;;;;;;10432243;28;20245;-77
2022/08/07 08:05:56;;;;;;;1.63;1.53;;;22.60;31.80;;;;;;10443897;28;20232;-77
2022/08/07 08:11:01;;;;;;;1.43;1.33;;;22.80;31.80;;;;;;10440840;28;20221;-77
2022/08/07 08:16:07;;;;;;;1.50;1.40;;;23.00;30.70;;;;;;10440501;28;20820;-77
2022/08/07 08:27:08;;;;;;;1.30;1.20;;;23.40;30.70;;;;;;10443314;28;20221;-77
2022/08/07 08:32:14;;;;;;;1.30;1.20;;;23.70;30.00;;;;;;10444138;28;20220;-78
2022/08/07 08:37:30;;;;;;;1.40;1.30;;;23.90;29.80;;;;;;10442055;28;20635;-75
2022/08/07 08:43:03;;;;;;;1.40;1.30;;;24.10;29.60;;;;;;10451976;28;20232;-75
2022/08/07 08:48:24;;;;;;;1.40;1.30;;;24.30;28.30;;;;;;10444550;28;20276;-75
2022/08/07 08:53:42;;;;;;;1.23;1.20;;;24.50;28.40;;;;;;10440109;28;20701;-75
2022/08/07 08:58:55;;;;;;;1.40;1.30;;;24.70;28.50;;;;;;10443986;28;20233;-75
2022/08/07 09:04:08;;;;;;;1.67;1.40;;;24.80;28.60;;;;;;10438474;28;20227;-75
2022/08/07 09:09:37;;;;;;;1.43;1.30;;;24.90;28.00;;;;;;10442240;28;20418;-76
2022/08/07 09:14:52;;;;;;;1.50;1.10;;;25.00;28.40;;;;;;10438939;28;20736;-75
2022/08/07 09:20:12;;;;;;;1.30;1.20;;;25.20;27.80;;;;;;10440854;28;20696;-75
2022/08/07 09:25:44;;;;;;;1.30;1.20;;;25.40;27.70;;;;;;10441456;28;20672;-75
2022/08/07 09:31:03;;;;;;;1.00;1.00;;;25.60;27.30;;;;;;10451327;28;20231;-77
2022/08/07 09:36:14;;;;;;;1.37;1.27;;;25.80;27.00;;;;;;10428025;28;20725;-76
2022/08/07 09:41:29;;;;;;;1.43;1.30;;;26.00;26.70;;;;;;10445614;28;20748;-76
2022/08/07 09:47:02;;;;;;;1.33;1.23;;;26.10;26.00;;;;;;10426527;28;20284;-77
2022/08/07 09:52:33;;;;;;;1.27;1.17;;;26.10;25.60;;;;;;10433733;28;20233;-77
2022/08/07 09:58:26;;;;;;;3.30;1.33;;;26.20;25.70;;;;;;10431198;28;20245;-76
2022/08/07 10:03:52;;;;;;;1.30;1.20;;;26.30;25.60;;;;;;10407872;28;20352;-77
2022/08/07 10:09:25;;;;;;;1.70;1.60;;;26.40;24.90;;;;;;10441258;28;20232;-77
2022/08/07 10:15:10;;;;;;;1.03;1.03;;;26.50;24.90;;;;;;10429649;28;20230;-77
2022/08/07 10:20:30;;;;;;;1.50;1.40;;;26.60;25.10;;;;;;10435839;28;20282;-77
2022/08/07 10:25:53;;;;;;;1.90;1.30;;;26.70;24.30;;;;;;10451570;28;20241;-77
2022/08/07 10:31:10;;;;;;;1.17;1.17;;;26.70;24.40;;;;;;10428218;28;20730;-77
2022/08/07 10:36:25;;;;;;;1.20;1.20;;;26.80;24.00;;;;;;10411153;28;20237;-77
2022/08/07 10:41:35;;;;;;;1.07;1.07;;;26.90;24.00;;;;;;10410521;28;20233;-77
2022/08/07 10:47:01;;;;;;;1.10;1.10;;;27.00;24.70;;;;;;10410834;28;20244;-75
2022/08/07 10:52:18;;;;;;;1.10;1.10;;;27.20;23.70;;;;;;10411052;28;20284;-77
2022/08/07 10:57:29;;;;;;;2.53;1.40;;;27.40;23.20;;;;;;10410103;28;20272;-77
2022/08/07 11:02:42;;;;;;;1.40;1.30;;;27.50;23.00;;;;;;10410583;28;20226;-76
2022/08/07 11:08:04;;;;;;;1.10;1.00;;;27.70;23.00;;;;;;10410342;28;20240;-77
2022/08/07 11:13:14;;;;;;;1.17;1.03;;;27.80;22.20;;;;;;10440928;28;20729;-76
2022/08/07 11:18:42;;;;;;;1.33;1.00;;;27.90;22.30;;;;;;10450116;28;20235;-77
2022/08/07 11:24:01;;;;;;;1.23;1.10;;;27.90;22.70;;;;;;10450358;28;20781;-76
2022/08/07 11:29:09;;;;;;;1.17;1.10;;;27.90;21.90;;;;;;10448716;28;20319;-75
2022/08/07 11:34:39;;;;;;;1.10;1.10;;;27.90;22.20;;;;;;10446216;28;20236;-74
2022/08/07 11:40:10;;;;;;;1.17;1.17;;;27.90;21.70;;;;;;10451262;28;20278;-75
2022/08/07 11:45:32;;;;;;;1.13;1.00;;;27.90;22.30;;;;;;10449989;28;20224;-75
2022/08/07 11:50:49;;;;;;;1.10;1.10;;;28.00;21.40;;;;;;10440821;28;20228;-75
2022/08/07 11:56:16;;;;;;;0.97;0.93;;;28.00;21.40;;;;;;10431824;28;20341;-76
2022/08/07 12:01:43;;;;;;;1.00;1.00;;;28.10;21.50;;;;;;10434727;28;20694;-75
2022/08/07 12:07:09;;;;;;;0.97;0.97;;;28.20;20.70;;;;;;10434347;28;20328;-75
2022/08/07 12:12:36;;;;;;;1.00;1.00;;;28.30;20.80;;;;;;10430361;28;21120;-75
2022/08/07 12:17:45;;;;;;;1.00;1.00;;;28.30;20.90;;;;;;10431740;28;20247;-75
2022/08/07 12:23:19;;;;;;;1.10;1.00;;;28.40;21.50;;;;;;10427920;28;20290;-76
2022/08/07 12:28:56;;;;;;;1.53;0.90;;;28.50;20.30;;;;;;10428610;28;20225;-76
2022/08/07 12:34:01;;;;;;;1.10;1.10;;;28.60;20.50;;;;;;10429100;28;20232;-76
2022/08/07 12:39:07;;;;;;;0.90;0.90;;;28.60;20.90;;;;;;10430768;28;20217;-76
2022/08/07 12:44:34;;;;;;;1.10;1.10;;;28.60;20.80;;;;;;10428690;28;20220;-76
2022/08/07 12:49:47;;;;;;;1.03;1.03;;;28.60;20.40;;;;;;10428160;28;20216;-76
2022/08/07 12:55:02;;;;;;;1.03;1.03;;;28.70;20.20;;;;;;10430426;28;20274;-77
2022/08/07 13:00:13;;;;;;;1.23;1.13;;;28.70;19.80;;;;;;10433478;28;20768;-76
2022/08/07 13:05:55;;;;;;;1.20;1.20;;;28.80;20.00;;;;;;10431966;28;20236;-76
2022/08/07 13:11:21;;;;;;;1.20;1.10;;;28.80;19.80;;;;;;10432834;28;20252;-76
2022/08/07 13:16:35;;;;;;;1.03;1.00;;;28.80;19.80;;;;;;10437423;28;20248;-76
2022/08/07 13:21:42;;;;;;;1.00;1.00;;;28.90;19.50;;;;;;10441505;28;20245;-76
2022/08/07 13:27:11;;;;;;;1.10;1.10;;;28.80;19.20;;;;;;10438258;28;20655;-76
2022/08/07 13:32:23;;;;;;;1.63;0.90;;;28.80;19.10;;;;;;10436457;28;20263;-76
2022/08/07 13:37:45;;;;;;;1.80;1.10;;;28.80;19.40;;;;;;10434244;28;20233;-76
2022/08/07 13:43:05;;;;;;;0.90;0.90;;;28.80;19.10;;;;;;10436773;28;20329;-76
2022/08/07 13:48:17;;;;;;;1.03;1.03;;;28.90;19.30;;;;;;10439876;28;20217;-77
2022/08/07 13:53:39;;;;;;;1.13;1.03;;;28.90;19.90;;;;;;10436587;28;20788;-76
2022/08/07 13:59:04;;;;;;;1.00;0.90;;;28.90;19.00;;;;;;10431663;28;20235;-76
2022/08/07 14:04:18;;;;;;;0.90;0.90;;;29.00;19.40;;;;;;10433159;28;20232;-76
2022/08/07 14:09:28;;;;;;;0.90;0.90;;;29.00;18.70;;;;;;10436020;28;20595;-77
2022/08/07 14:15:00;;;;;;;0.90;0.90;;;29.10;18.90;;;;;;10435633;28;20229;-76
2022/08/07 14:20:10;;;;;;;1.40;1.00;;;29.10;18.90;;;;;;10430462;28;20625;-76
2022/08/07 14:25:36;;;;;;;1.00;1.00;;;29.10;18.30;;;;;;10433984;28;20229;-76
2022/08/07 14:30:49;;;;;;;1.00;1.00;;;29.20;18.80;;;;;;10438881;28;20227;-76
2022/08/07 14:35:58;;;;;;;1.40;1.07;;;29.20;19.20;;;;;;10432628;28;20221;-75
2022/08/07 14:41:07;;;;;;;0.90;0.90;;;29.20;19.00;;;;;;10432463;28;20213;-77
2022/08/07 14:46:19;;;;;;;1.73;1.10;;;29.10;18.90;;;;;;10431419;28;20725;-76
2022/08/07 14:51:37;;;;;;;1.10;1.00;;;29.10;19.00;;;;;;10432805;28;20233;-76
2022/08/07 14:57:03;;;;;;;1.23;1.00;;;29.00;18.90;;;;;;10431756;28;20237;-77
2022/08/07 15:02:11;;;;;;;1.00;1.00;;;29.00;19.30;;;;;;10431322;28;20221;-77
2022/08/07 15:07:37;;;;;;;1.03;0.97;;;29.00;18.70;;;;;;10435037;28;20232;-75
2022/08/07 15:12:57;;;;;;;1.00;1.00;;;29.00;19.00;;;;;;10430988;28;20232;-75
2022/08/07 15:18:05;;;;;;;1.00;1.00;;;29.00;19.20;;;;;;10428516;28;20232;-75
2022/08/07 15:23:33;;;;;;;1.00;1.00;;;29.00;19.00;;;;;;10431876;28;21094;-75
2022/08/07 15:28:58;;;;;;;1.03;1.00;;;29.00;18.90;;;;;;10430681;28;20232;-75
2022/08/07 15:34:22;;;;;;;0.90;0.90;;;28.90;19.00;;;;;;10432378;28;20232;-75
2022/08/07 15:39:31;;;;;;;1.00;1.00;;;28.80;18.80;;;;;;10429407;28;20236;-76
2022/08/07 15:44:55;;;;;;;1.00;1.00;;;28.80;18.80;;;;;;10428190;28;20236;-76
2022/08/07 15:50:02;;;;;;;2.10;1.10;;;28.70;19.20;;;;;;10431173;28;20260;-77
2022/08/07 15:55:14;;;;;;;1.00;1.00;;;28.70;18.90;;;;;;10430636;28;20225;-75
2022/08/07 16:00:20;;;;;;;1.40;1.00;;;28.70;18.70;;;;;;10428530;28;20482;-76
2022/08/07 16:05:38;;;;;;;1.10;1.00;;;28.60;18.70;;;;;;10429831;28;20228;-75
2022/08/07 16:10:47;;;;;;;1.00;1.00;;;28.60;18.70;;;;;;10423953;28;20228;-76
2022/08/07 16:16:01;;;;;;;1.07;1.07;;;28.50;18.50;;;;;;10427929;28;20286;-76
2022/08/07 16:21:11;;;;;;;1.07;1.07;;;28.40;18.20;;;;;;10431683;28;20707;-76
2022/08/07 16:26:53;;;;;;;1.20;1.10;;;28.30;18.40;;;;;;10433605;28;20235;-76
2022/08/07 16:32:05;;;;;;;1.03;1.03;;;28.20;18.10;;;;;;10432870;28;20240;-76
2022/08/07 16:37:26;;;;;;;1.10;1.10;;;28.10;18.50;;;;;;10439547;28;20247;-76
2022/08/07 16:43:03;;;;;;;1.10;1.00;;;28.00;18.10;;;;;;10438200;28;20232;-76
2022/08/07 16:48:41;;;;;;;2.20;1.30;;;27.90;18.50;;;;;;10421927;28;20235;-75
2022/08/07 16:54:27;;;;;;;0.90;0.90;;;27.90;18.90;;;;;;10434945;28;20234;-74
2022/08/07 16:59:50;;;;;;;1.60;1.30;;;27.80;18.70;;;;;;10410500;28;20226;-75
2022/08/07 17:05:09;;;;;;;1.63;1.10;;;27.80;18.80;;;;;;10449468;28;20236;-75
2022/08/07 17:10:43;;;;;;;1.20;1.10;;;27.70;18.80;;;;;;10431887;28;20241;-75
2022/08/07 17:16:05;;;;;;;1.30;1.20;;;27.80;19.00;;;;;;10429029;28;20897;-75
2022/08/07 17:21:14;;;;;;;1.30;1.30;;;27.70;18.90;;;;;;10442328;28;20233;-74
2022/08/07 17:26:32;;;;;;;1.37;1.27;;;27.70;19.20;;;;;;10450119;28;20315;-75
2022/08/07 17:32:02;;;;;;;1.30;1.20;;;27.70;19.10;;;;;;10444166;28;20321;-75
2022/08/07 17:37:16;;;;;;;1.60;1.50;;;27.60;19.40;;;;;;10448758;28;20259;-75
2022/08/07 17:42:50;;;;;;;1.77;1.50;;;27.60;19.80;;;;;;10441724;28;20355;-75
2022/08/07 17:48:09;;;;;;;2.00;1.80;;;27.60;19.90;;;;;;10432755;28;20273;-75
2022/08/07 17:53:35;;;;;;;1.57;1.47;;;27.50;19.80;;;;;;10439621;28;20294;-74
2022/08/07 17:59:05;;;;;;;2.40;2.20;;;27.50;19.80;;;;;;10441053;28;20224;-75
2022/08/07 18:04:23;;;;;;;2.80;1.80;;;27.40;19.80;;;;;;10439288;28;20229;-75
2022/08/07 18:09:37;;;;;;;1.60;1.50;;;27.30;20.40;;;;;;10426750;28;20225;-74
2022/08/07 18:15:06;;;;;;;2.10;1.90;;;27.30;20.80;;;;;;10446604;28;20589;-76
2022/08/07 18:20:18;;;;;;;2.00;1.77;;;27.20;20.80;;;;;;10448943;28;20302;-76
2022/08/07 18:25:46;;;;;;;5.43;1.90;;;27.10;21.00;;;;;;10437121;28;20232;-76
2022/08/07 18:30:58;;;;;;;1.97;1.87;;;27.00;21.10;;;;;;10422311;28;20225;-76
2022/08/07 18:36:14;;;;;;;2.10;2.00;;;26.90;21.20;;;;;;10433315;28;20237;-76
2022/08/07 18:41:26;;;;;;;3.33;1.97;;;26.90;21.40;;;;;;10424199;28;20217;-76
2022/08/07 18:46:56;;;;;;;1.90;1.80;;;26.90;21.50;;;;;;10419516;28;20225;-75
2022/08/07 18:52:25;;;;;;;1.70;1.60;;;26.90;21.40;;;;;;10432388;28;20269;-76
2022/08/07 18:58:17;;;;;;;2.00;1.90;;;26.90;21.50;;;;;;10416956;28;20237;-76
2022/08/07 19:03:25;;;;;;;1.90;1.80;;;26.90;21.50;;;;;;10404770;28;20372;-76
2022/08/07 19:08:58;;;;;;;1.80;1.70;;;26.80;21.60;;;;;;10428863;28;20225;-76
2022/08/07 19:14:15;;;;;;;1.70;1.60;;;26.80;21.70;;;;;;10420239;28;20221;-74
2022/08/07 19:19:32;;;;;;;1.60;1.50;;;26.80;21.80;;;;;;10439569;28;20266;-75
2022/08/07 19:24:42;;;;;;;1.80;1.70;;;26.80;22.00;;;;;;10438755;28;20239;-73
2022/08/07 19:29:51;;;;;;;1.90;1.80;;;26.70;22.20;;;;;;10440283;28;20224;-75
2022/08/07 19:35:18;;;;;;;1.80;1.70;;;26.60;22.00;;;;;;10439434;28;20233;-75
2022/08/07 19:40:29;;;;;;;1.70;1.60;;;26.60;22.40;;;;;;10438215;28;20229;-75
2022/08/07 19:45:40;;;;;;;1.97;1.87;;;26.50;22.80;;;;;;10440279;28;20233;-75
2022/08/07 19:51:05;;;;;;;1.80;1.70;;;26.40;22.60;;;;;;10440406;28;20231;-76
2022/08/07 19:56:29;;;;;;;2.13;2.03;;;26.20;22.70;;;;;;10401721;28;20233;-75
2022/08/07 20:01:56;;;;;;;1.77;1.67;;;26.10;23.20;;;;;;10435998;28;20242;-75
2022/08/07 20:07:01;;;;;;;2.13;1.80;;;25.90;23.00;;;;;;10425842;28;20265;-75
2022/08/07 20:12:07;;;;;;;1.90;1.80;;;25.80;23.20;;;;;;10435975;28;20217;-75
2022/08/07 20:17:34;;;;;;;1.90;1.80;;;25.70;23.40;;;;;;10449142;28;20240;-75
2022/08/07 20:22:45;;;;;;;2.00;1.90;;;25.60;23.60;;;;;;10422033;28;20221;-74
2022/08/07 20:27:53;;;;;;;2.20;2.10;;;25.50;23.90;;;;;;10431068;28;20235;-75
2022/08/07 20:33:03;;;;;;;2.10;2.00;;;25.40;24.00;;;;;;10430708;28;20225;-76
2022/08/07 20:38:13;;;;;;;2.20;2.00;;;25.20;23.80;;;;;;10437269;28;20298;-76
2022/08/07 20:43:24;;;;;;;2.37;1.90;;;25.10;24.00;;;;;;10436271;28;20312;-74
2022/08/07 20:48:31;;;;;;;2.20;2.00;;;24.90;24.20;;;;;;10432870;28;20278;-75
2022/08/07 20:53:38;;;;;;;1.87;1.70;;;24.80;24.30;;;;;;10430368;28;21613;-75
2022/08/07 20:59:04;;;;;;;2.10;2.00;;;24.70;24.30;;;;;;10430938;28;20697;-73
2022/08/07 21:04:29;;;;;;;2.13;1.93;;;24.60;24.50;;;;;;10431681;28;20607;-76
2022/08/07 21:09:35;;;;;;;2.03;1.93;;;24.60;24.50;;;;;;10436035;28;20228;-74
2022/08/07 21:15:05;;;;;;;2.10;1.90;;;24.60;24.80;;;;;;10439092;28;20216;-75
2022/08/07 21:20:13;;;;;;;2.17;2.00;;;24.50;25.00;;;;;;10440509;28;20760;-74
2022/08/07 21:25:36;;;;;;;2.30;2.20;;;24.40;25.00;;;;;;10433610;28;20659;-75
2022/08/07 21:30:54;;;;;;;2.20;2.10;;;24.30;25.00;;;;;;10429404;28;20221;-75
2022/08/07 21:36:09;;;;;;;2.10;2.00;;;24.20;25.20;;;;;;10437343;28;20603;-74
2022/08/07 21:41:42;;;;;;;2.50;2.30;;;24.10;25.30;;;;;;10433228;28;20720;-76
2022/08/07 21:47:13;;;;;;;2.27;2.17;;;24.00;25.50;;;;;;10436649;28;20225;-75
2022/08/07 21:52:31;;;;;;;2.30;2.20;;;23.90;25.60;;;;;;10438439;28;20308;-76
2022/08/07 21:57:50;;;;;;;2.40;2.20;;;23.90;25.80;;;;;;10439567;28;20239;-76
2022/08/07 22:03:01;;;;;;;2.80;2.20;;;23.80;25.80;;;;;;10435965;28;20235;-76
2022/08/07 22:08:09;;;;;;;2.23;2.13;;;23.70;26.00;;;;;;10431597;28;20221;-76
2022/08/07 22:13:14;;;;;;;2.50;2.30;;;23.70;25.60;;;;;;10429495;28;20241;-75
2022/08/07 22:18:24;;;;;;;2.00;1.90;;;23.60;25.80;;;;;;10433061;28;20221;-76
2022/08/07 22:23:37;;;;;;;2.17;2.00;;;23.50;26.10;;;;;;10438115;28;20225;-76
2022/08/07 22:28:48;;;;;;;2.10;2.00;;;23.50;26.00;;;;;;10439331;28;20946;-77
2022/08/07 22:34:08;;;;;;;2.03;1.93;;;23.40;26.30;;;;;;10440537;28;20245;-76
2022/08/07 22:39:25;;;;;;;2.80;2.60;;;23.40;26.50;;;;;;10441690;28;20225;-76
2022/08/07 22:44:35;;;;;;;2.47;2.17;;;23.20;26.70;;;;;;10431118;28;20251;-75
2022/08/07 22:50:09;;;;;;;2.70;2.50;;;23.20;26.80;;;;;;10437870;28;20224;-76
2022/08/07 22:55:33;;;;;;;2.60;2.40;;;23.00;27.20;;;;;;10439606;28;20306;-76
2022/08/07 23:00:45;;;;;;;2.10;1.90;;;22.80;27.20;;;;;;10436127;28;20217;-75
2022/08/07 23:06:36;;;;;;;2.50;2.17;;;22.60;27.10;;;;;;10438504;28;20762;-76
2022/08/07 23:11:53;;;;;;;2.43;2.23;;;22.60;27.10;;;;;;10360083;28;20278;-74
2022/08/07 23:17:30;;;;;;;2.53;2.40;;;22.50;27.20;;;;;;10437919;28;20229;-76
2022/08/07 23:22:50;;;;;;;2.43;2.27;;;22.50;27.00;;;;;;10420545;28;20236;-76
2022/08/07 23:28:13;;;;;;;2.50;2.40;;;22.40;27.80;;;;;;10433238;28;20717;-77
2022/08/07 23:33:49;;;;;;;2.50;2.40;;;22.40;27.90;;;;;;10435787;28;20231;-77
2022/08/07 23:39:20;;;;;;;2.50;2.30;;;22.30;27.70;;;;;;10447372;28;20235;-76
2022/08/07 23:44:40;;;;;;;2.63;2.43;;;22.30;28.10;;;;;;10444792;28;20240;-75
2022/08/07 23:50:02;;;;;;;2.93;2.73;;;22.10;28.10;;;;;;10443787;28;20224;-76
2022/08/07 23:55:18;;;;;;;2.93;2.50;;;22.00;28.20;;;;;;10441975;28;20308;-75
